Time;durP1;ratioP1;P1;durP2;ratioP2;P2;SDS_P1;SDS_P2;PMS_P1;PMS_P2;Temp;Humidity;BMP_temperature;BMP_pressure;BME280_temperature;BME280_humidity;BME280_pressure;Samples;Min_cycle;Max_cycle;Signal;HPM_P1;HPM_P2
2023/01/11 00:00:11;;;;;;;5.18;2.08;;;10.60;86.20;;;;;;5113830;28;20078;-75
2023/01/11 00:02:40;;;;;;;7.00;2.17;;;10.60;86.30;;;;;;5105421;28;20040;-75
2023/01/11 00:05:08;;;;;;;4.80;2.20;;;10.60;86.20;;;;;;5113645;28;20035;-75
2023/01/11 00:07:34;;;;;;;5.20;2.17;;;10.70;86.30;;;;;;5103337;28;20047;-75
2023/01/11 00:10:03;;;;;;;8.23;2.45;;;10.70;86.30;;;;;;5107057;28;20067;-76
2023/01/11 00:12:29;;;;;;;4.78;2.10;;;10.70;86.30;;;;;;5104006;28;20463;-75
2023/01/11 00:14:55;;;;;;;5.43;1.88;;;10.80;86.40;;;;;;5109446;28;20360;-75
2023/01/11 00:17:21;;;;;;;5.78;2.28;;;10.80;86.40;;;;;;5104433;28;20024;-75
2023/01/11 00:19:47;;;;;;;5.38;2.15;;;10.80;86.40;;;;;;5087482;28;20452;-75
2023/01/11 00:22:13;;;;;;;6.35;2.83;;;10.80;86.40;;;;;;5103010;28;20085;-75
2023/01/11 00:24:39;;;;;;;3.92;2.17;;;10.80;86.50;;;;;;5105739;28;20036;-75
2023/01/11 00:27:05;;;;;;;5.03;2.05;;;10.90;86.60;;;;;;5102769;28;20097;-75
2023/01/11 00:29:30;;;;;;;6.65;2.30;;;10.90;86.60;;;;;;5112595;28;20119;-75
2023/01/11 00:31:56;;;;;;;5.60;2.28;;;10.90;86.60;;;;;;5109530;28;20035;-75
2023/01/11 00:34:22;;;;;;;5.93;2.47;;;10.90;86.60;;;;;;5112783;28;20023;-75
2023/01/11 00:36:48;;;;;;;5.55;2.10;;;10.90;86.60;;;;;;5099281;28;20020;-75
2023/01/11 00:39:13;;;;;;;3.55;1.90;;;10.90;86.60;;;;;;5114540;27;20023;-75
2023/01/11 00:50:00;;;;;;;4.32;2.30;;;11.00;86.80;;;;;;5107968;28;20090;-75
2023/01/11 00:52:26;;;;;;;5.80;2.55;;;11.00;86.70;;;;;;5102314;28;20072;-75
2023/01/11 00:54:52;;;;;;;4.93;2.30;;;11.00;86.80;;;;;;5113243;28;20358;-75
2023/01/11 00:57:18;;;;;;;7.68;2.47;;;11.00;86.80;;;;;;5109921;28;20020;-75
2023/01/11 00:59:44;;;;;;;5.75;2.20;;;11.00;86.90;;;;;;5116246;28;20055;-75
2023/01/11 01:02:11;;;;;;;4.45;2.17;;;11.10;87.00;;;;;;5094531;28;20107;-75
2023/01/11 01:04:37;;;;;;;5.57;2.30;;;11.00;87.00;;;;;;5113138;28;20024;-75
2023/01/11 01:07:03;;;;;;;5.40;2.22;;;11.10;87.10;;;;;;5112725;28;20087;-75
2023/01/11 01:09:29;;;;;;;6.63;2.65;;;11.10;87.10;;;;;;5110431;28;20096;-75
2023/01/11 01:11:55;;;;;;;5.78;2.47;;;11.10;87.20;;;;;;5090274;28;20027;-75
2023/01/11 01:14:28;;;;;;;6.50;2.58;;;11.10;87.20;;;;;;5112758;28;20451;-75
2023/01/11 01:17:06;;;;;;;6.70;2.45;;;11.10;87.30;;;;;;5114026;28;20028;-75
2023/01/11 01:19:35;;;;;;;4.70;2.05;;;11.10;87.40;;;;;;5114268;28;20024;-75
2023/01/11 01:22:01;;;;;;;9.20;2.50;;;11.10;87.40;;;;;;5093064;28;20461;-75
2023/01/11 01:24:29;;;;;;;6.38;2.53;;;11.20;87.50;;;;;;5113063;28;20023;-75
2023/01/11 01:26:56;;;;;;;7.07;2.45;;;11.10;87.50;;;;;;5107063;28;20027;-75
2023/01/11 01:29:23;;;;;;;5.30;2.30;;;11.10;87.50;;;;;;5086239;28;20339;-75
2023/01/11 01:31:48;;;;;;;5.32;2.00;;;11.20;87.60;;;;;;5086808;28;20077;-76
2023/01/11 01:34:14;;;;;;;4.43;2.28;;;11.20;87.60;;;;;;5114405;28;20472;-75
2023/01/11 01:36:41;;;;;;;4.32;1.85;;;11.20;87.60;;;;;;5116629;27;20024;-76
2023/01/11 01:39:07;;;;;;;5.60;2.25;;;11.20;87.70;;;;;;5131283;27;20122;-76
2023/01/11 01:41:34;;;;;;;6.63;2.00;;;11.20;87.60;;;;;;5110704;28;20023;-75
2023/01/11 01:44:38;;;;;;;4.50;1.92;;;11.20;87.60;;;;;;5111718;28;20106;-76
2023/01/11 01:47:04;;;;;;;5.68;1.95;;;11.30;87.70;;;;;;5088859;28;20036;-75
2023/01/11 01:49:30;;;;;;;4.72;1.67;;;11.20;87.70;;;;;;5110826;28;20039;-74
2023/01/11 01:51:57;;;;;;;5.18;1.95;;;11.30;87.80;;;;;;5116805;28;20102;-75
2023/01/11 01:54:30;;;;;;;4.82;1.80;;;11.30;87.90;;;;;;5114174;28;20035;-75
2023/01/11 01:57:01;;;;;;;4.25;1.70;;;11.30;88.00;;;;;;5099941;28;20020;-75
2023/01/11 01:59:30;;;;;;;3.60;1.55;;;11.30;88.00;;;;;;5118473;28;20026;-75
2023/01/11 02:01:56;;;;;;;3.63;1.80;;;11.30;88.10;;;;;;5117583;28;20114;-75
2023/01/11 02:04:29;;;;;;;5.45;1.88;;;11.30;88.20;;;;;;5114425;28;20099;-75
2023/01/11 02:07:17;;;;;;;4.88;1.73;;;11.30;88.20;;;;;;5103934;28;20035;-75
2023/01/11 02:10:09;;;;;;;3.50;1.60;;;11.30;88.20;;;;;;5105110;28;20031;-75
2023/01/11 02:12:40;;;;;;;;;;;11.40;88.40;;;;;;5111050;28;20139;-75
2023/01/11 02:15:09;;;;;;;3.08;1.55;;;11.30;88.10;;;;;;5098904;28;20041;-75
2023/01/11 02:17:35;;;;;;;3.10;1.42;;;11.30;88.00;;;;;;5108570;28;20055;-75
2023/01/11 02:20:25;;;;;;;3.80;1.30;;;11.40;88.20;;;;;;5116206;28;20071;-76
2023/01/11 02:23:18;;;;;;;3.08;1.50;;;11.40;88.20;;;;;;5116210;28;20384;-75
2023/01/11 02:26:12;;;;;;;3.53;1.73;;;11.40;88.30;;;;;;5110525;28;20028;-75
2023/01/11 02:29:13;;;;;;;3.00;1.33;;;11.40;88.30;;;;;;5109594;28;20038;-75
2023/01/11 02:31:57;;;;;;;2.60;1.27;;;11.40;88.40;;;;;;5073954;28;20044;-75
2023/01/11 02:34:30;;;;;;;2.45;1.27;;;11.40;88.40;;;;;;5112575;28;20031;-75
2023/01/11 02:37:31;;;;;;;3.13;1.40;;;11.40;88.40;;;;;;5109386;28;20030;-75
2023/01/11 02:40:11;;;;;;;2.58;1.27;;;11.40;88.50;;;;;;5101509;28;20020;-75
2023/01/11 02:45:50;;;;;;;1.77;1.10;;;11.50;88.70;;;;;;5104742;28;20029;-75
2023/01/11 02:48:19;;;;;;;2.55;1.23;;;11.50;88.60;;;;;;5114233;28;20041;-75
2023/01/11 02:50:57;;;;;;;1.85;1.13;;;11.50;88.70;;;;;;5098997;28;20046;-75
2023/01/11 02:53:42;;;;;;;2.88;1.30;;;11.50;88.70;;;;;;5114062;27;20030;-75
2023/01/11 02:56:20;;;;;;;3.03;1.35;;;11.50;88.80;;;;;;5115926;28;20106;-75
2023/01/11 02:58:49;;;;;;;2.08;1.00;;;11.50;88.80;;;;;;5099829;28;20024;-75
2023/01/11 03:01:16;;;;;;;2.03;1.10;;;11.50;88.90;;;;;;5109895;28;20035;-75
2023/01/11 03:03:42;;;;;;;4.18;1.40;;;11.50;88.90;;;;;;5100561;28;20341;-75
2023/01/11 03:06:24;;;;;;;3.05;1.40;;;11.60;89.00;;;;;;5100796;28;20035;-74
2023/01/11 03:09:09;;;;;;;2.67;1.40;;;11.60;89.10;;;;;;5123730;28;20106;-74
2023/01/11 03:14:59;;;;;;;2.50;1.35;;;11.60;89.10;;;;;;5098150;28;20028;-75
2023/01/11 03:17:40;;;;;;;3.45;1.25;;;11.60;89.00;;;;;;5111583;28;20023;-75
2023/01/11 03:20:24;;;;;;;3.87;1.40;;;11.60;89.00;;;;;;5111221;28;20042;-75
2023/01/11 03:23:01;;;;;;;3.28;1.60;;;11.60;89.10;;;;;;5106210;28;20134;-75
2023/01/11 03:25:42;;;;;;;3.08;1.40;;;11.60;89.10;;;;;;5111110;28;20039;-75
2023/01/11 03:28:17;;;;;;;3.97;1.63;;;11.70;89.10;;;;;;5115789;28;20097;-75
2023/01/11 03:31:09;;;;;;;3.50;1.52;;;11.70;89.20;;;;;;5114582;28;20031;-75
2023/01/11 03:33:57;;;;;;;3.88;1.48;;;11.60;89.20;;;;;;5104158;28;20071;-75
2023/01/11 03:36:44;;;;;;;2.92;1.50;;;11.70;89.20;;;;;;5113297;28;20023;-75
2023/01/11 03:39:25;;;;;;;3.85;1.73;;;11.70;89.20;;;;;;5111299;28;20425;-74
2023/01/11 03:41:56;;;;;;;3.88;1.70;;;11.80;89.30;;;;;;5102146;28;20024;-75
2023/01/11 03:44:24;;;;;;;3.22;1.60;;;11.80;89.20;;;;;;5107081;28;20057;-75
2023/01/11 03:46:54;;;;;;;2.78;1.50;;;11.80;89.20;;;;;;5112975;28;20027;-75
2023/01/11 03:49:28;;;;;;;3.07;1.50;;;11.80;89.30;;;;;;5112176;28;20031;-75
2023/01/11 03:51:57;;;;;;;2.67;1.40;;;11.80;89.30;;;;;;5114037;28;20664;-75
2023/01/11 03:54:26;;;;;;;4.55;1.67;;;11.80;89.40;;;;;;5108279;28;20114;-75
2023/01/11 03:57:00;;;;;;;3.28;1.48;;;11.80;90.00;;;;;;5112823;28;20442;-75
2023/01/11 03:59:27;;;;;;;3.22;1.60;;;11.80;89.50;;;;;;5113401;28;20513;-75
2023/01/11 04:01:54;;;;;;;2.75;1.48;;;11.80;89.50;;;;;;5112262;28;20027;-75
2023/01/11 04:04:19;;;;;;;2.33;1.38;;;11.90;89.50;;;;;;5108880;28;20045;-75
2023/01/11 04:06:45;;;;;;;2.13;1.30;;;11.90;89.50;;;;;;5101715;28;20111;-75
2023/01/11 04:09:11;;;;;;;3.45;1.50;;;11.90;89.50;;;;;;5112010;28;20024;-75
2023/01/11 04:11:37;;;;;;;2.88;1.52;;;11.90;89.50;;;;;;5112376;28;20023;-75
2023/01/11 04:14:02;;;;;;;4.15;1.58;;;11.90;89.50;;;;;;5111614;28;20438;-75
2023/01/11 04:16:28;;;;;;;3.75;1.70;;;11.90;89.50;;;;;;5113434;28;20044;-75
2023/01/11 04:18:54;;;;;;;2.50;1.48;;;11.90;89.50;;;;;;5110759;28;20024;-75
2023/01/11 04:21:20;;;;;;;3.75;1.45;;;11.90;89.60;;;;;;5103808;28;20030;-74
2023/01/11 04:23:46;;;;;;;3.28;1.65;;;12.00;89.60;;;;;;5111444;28;20115;-74
2023/01/11 04:26:11;;;;;;;2.90;1.48;;;12.00;89.70;;;;;;5112307;28;20118;-75
2023/01/11 04:28:37;;;;;;;2.08;1.38;;;11.90;89.60;;;;;;5114104;28;20027;-75
2023/01/11 04:31:03;;;;;;;3.70;1.50;;;12.00;89.70;;;;;;5095982;28;20023;-75
2023/01/11 04:33:29;;;;;;;3.25;1.60;;;12.00;89.70;;;;;;5113244;28;20031;-75
2023/01/11 04:35:54;;;;;;;3.38;1.55;;;12.00;89.80;;;;;;5112564;28;20059;-74
2023/01/11 04:38:23;;;;;;;2.50;1.40;;;12.00;89.80;;;;;;5111786;28;20024;-75
2023/01/11 04:42:17;;;;;;;3.03;1.50;;;12.00;89.80;;;;;;5098681;28;20036;-75
2023/01/11 04:43:35;;;;;;;2.58;1.42;;;12.00;89.80;;;;;;5101586;28;20059;-75
2023/01/11 04:46:01;;;;;;;4.15;1.80;;;12.00;89.80;;;;;;5097302;28;20502;-75
2023/01/11 04:48:27;;;;;;;3.88;2.00;;;12.00;89.80;;;;;;5088778;28;20098;-75
2023/01/11 04:50:52;;;;;;;5.05;2.03;;;12.00;90.20;;;;;;5096814;28;20050;-75
2023/01/11 04:53:18;;;;;;;4.05;1.90;;;12.00;89.90;;;;;;5111713;28;20027;-75
2023/01/11 04:55:45;;;;;;;4.75;2.25;;;12.00;89.90;;;;;;5114991;28;20016;-75
2023/01/11 04:58:11;;;;;;;5.03;2.50;;;12.10;90.00;;;;;;5105489;28;20355;-75
2023/01/11 05:00:37;;;;;;;3.88;1.95;;;12.10;90.00;;;;;;5114236;28;20019;-75
2023/01/11 05:03:03;;;;;;;4.50;2.30;;;12.10;90.00;;;;;;5113922;28;20478;-75
2023/01/11 05:05:29;;;;;;;5.45;2.63;;;12.10;90.00;;;;;;5094878;28;20023;-75
2023/01/11 05:07:54;;;;;;;5.15;2.17;;;12.10;90.00;;;;;;5109916;28;20036;-74
2023/01/11 05:10:20;;;;;;;3.58;2.10;;;12.10;90.00;;;;;;5117046;27;20408;-75
2023/01/11 05:12:46;;;;;;;5.43;2.45;;;12.10;90.00;;;;;;5115722;28;20031;-73
2023/01/11 05:15:12;;;;;;;5.80;2.63;;;12.10;90.00;;;;;;5097475;28;20035;-72
2023/01/11 05:17:38;;;;;;;4.68;2.38;;;12.20;90.00;;;;;;5090975;28;20494;-74
2023/01/11 05:20:04;;;;;;;5.43;2.70;;;12.10;90.00;;;;;;5113383;28;20448;-74
2023/01/11 05:22:30;;;;;;;6.88;3.03;;;12.20;90.10;;;;;;5112261;28;20067;-73
2023/01/11 05:24:55;;;;;;;6.22;3.28;;;12.20;90.00;;;;;;5107574;27;20020;-74
2023/01/11 05:27:21;;;;;;;7.00;3.70;;;12.20;90.00;;;;;;5105157;28;20024;-74
2023/01/11 05:29:47;;;;;;;7.90;3.33;;;12.20;90.00;;;;;;5113727;28;20036;-73
2023/01/11 05:32:12;;;;;;;6.07;3.20;;;12.20;90.00;;;;;;5109938;27;20035;-73
2023/01/11 05:34:38;;;;;;;7.65;3.65;;;12.20;90.00;;;;;;5108767;27;20020;-73
2023/01/11 05:37:04;;;;;;;8.27;3.78;;;12.20;90.00;;;;;;5100929;27;20111;-73
2023/01/11 05:39:30;;;;;;;7.75;3.70;;;12.20;90.00;;;;;;5111637;27;20084;-74
2023/01/11 05:41:55;;;;;;;7.22;3.60;;;12.20;90.00;;;;;;5107132;28;20032;-74
2023/01/11 05:47:05;;;;;;;7.53;3.90;;;12.20;90.00;;;;;;5112109;28;20119;-74
2023/01/11 05:49:31;;;;;;;9.52;4.18;;;12.20;90.00;;;;;;5098094;28;20050;-74
2023/01/11 05:51:57;;;;;;;7.93;4.40;;;12.20;90.00;;;;;;5105037;28;20024;-74
2023/01/11 05:54:23;;;;;;;8.20;4.03;;;12.20;90.00;;;;;;5117243;27;20020;-74
2023/01/11 05:56:48;;;;;;;8.80;4.32;;;12.20;90.00;;;;;;5107506;28;20034;-74
2023/01/11 05:59:14;;;;;;;10.05;5.05;;;12.20;90.00;;;;;;5109964;28;20458;-74
2023/01/11 06:01:40;;;;;;;9.73;4.60;;;12.20;90.10;;;;;;5107060;28;20101;-75
2023/01/11 06:04:07;;;;;;;8.75;4.13;;;12.20;90.10;;;;;;5100668;28;20166;-74
2023/01/11 06:06:33;;;;;;;8.63;4.60;;;12.20;90.10;;;;;;5102575;28;20058;-74
2023/01/11 06:08:59;;;;;;;9.40;4.57;;;12.20;90.10;;;;;;5115148;28;20031;-74
2023/01/11 06:11:24;;;;;;;9.23;4.22;;;12.20;90.10;;;;;;5089444;28;20043;-75
2023/01/11 06:13:50;;;;;;;7.82;4.07;;;12.20;90.10;;;;;;5113626;28;20070;-74
2023/01/11 06:16:18;;;;;;;10.82;4.00;;;12.20;90.10;;;;;;5115836;28;20016;-74
2023/01/11 06:18:46;;;;;;;7.68;4.18;;;12.20;90.10;;;;;;5117183;28;20035;-74
2023/01/11 06:21:13;;;;;;;7.75;4.00;;;12.20;90.10;;;;;;5113389;28;20016;-74
2023/01/11 06:23:41;;;;;;;9.43;4.40;;;12.20;90.10;;;;;;5118511;28;20071;-74
2023/01/11 06:26:13;;;;;;;11.25;4.55;;;12.20;90.10;;;;;;5104483;28;20032;-74
2023/01/11 06:28:40;;;;;;;8.98;4.13;;;12.20;90.10;;;;;;5117853;28;20400;-74
2023/01/11 06:31:06;;;;;;;12.98;4.60;;;12.20;90.10;;;;;;5115031;28;20027;-74
2023/01/11 06:33:33;;;;;;;13.20;3.97;;;12.20;90.10;;;;;;5098375;28;20051;-74
2023/01/11 06:36:05;;;;;;;10.52;3.53;;;12.20;90.10;;;;;;5084044;28;20027;-74
2023/01/11 06:38:31;;;;;;;9.40;2.95;;;12.20;90.10;;;;;;5114848;28;20065;-74
2023/01/11 06:41:00;;;;;;;9.43;3.22;;;12.20;90.00;;;;;;5114823;28;20081;-74
2023/01/11 06:43:27;;;;;;;11.75;4.38;;;12.20;90.00;;;;;;5114612;28;20048;-74
2023/01/11 06:45:53;;;;;;;9.25;3.30;;;12.10;90.30;;;;;;5107756;28;20035;-74
2023/01/11 06:48:20;;;;;;;8.98;2.88;;;12.10;90.00;;;;;;5116801;28;20417;-74
2023/01/11 06:50:51;;;;;;;11.23;3.25;;;12.10;90.00;;;;;;5099218;28;20046;-74
2023/01/11 06:53:17;;;;;;;10.38;2.53;;;12.10;90.00;;;;;;5111926;28;20035;-74
2023/01/11 06:55:43;;;;;;;9.52;2.75;;;12.10;90.00;;;;;;5106365;28;20020;-69
2023/01/11 06:58:09;;;;;;;13.00;2.97;;;12.00;89.90;;;;;;5116057;28;20043;-71
2023/01/11 07:00:35;;;;;;;9.93;3.20;;;12.00;89.90;;;;;;5116142;28;20031;-72
2023/01/11 07:03:05;;;;;;;10.70;2.78;;;12.00;89.70;;;;;;5104896;28;20027;-72
2023/01/11 07:05:35;;;;;;;14.93;3.40;;;12.00;89.70;;;;;;5114331;28;20118;-72
2023/01/11 07:08:01;;;;;;;11.70;2.53;;;12.00;89.60;;;;;;5103351;28;20089;-73
2023/01/11 07:10:27;;;;;;;9.25;3.08;;;12.00;89.60;;;;;;5113138;28;20027;-74
2023/01/11 07:12:53;;;;;;;12.82;2.90;;;12.00;89.50;;;;;;5106160;28;20073;-74
2023/01/11 07:15:19;;;;;;;11.40;2.95;;;12.00;89.40;;;;;;5124405;27;20016;-74
2023/01/11 07:17:47;;;;;;;12.65;2.65;;;12.00;89.30;;;;;;5114430;28;20092;-74
2023/01/11 07:20:13;;;;;;;11.48;2.40;;;12.00;89.30;;;;;;5098671;28;20047;-75
2023/01/11 07:22:40;;;;;;;12.63;2.88;;;12.00;89.20;;;;;;5103689;28;20044;-73
2023/01/11 07:25:06;;;;;;;10.10;2.53;;;12.00;89.20;;;;;;5111567;28;20020;-73
2023/01/11 07:27:32;;;;;;;12.25;2.97;;;12.00;89.10;;;;;;5112153;28;20028;-73
2023/01/11 07:30:01;;;;;;;16.60;3.33;;;11.90;89.00;;;;;;5115741;28;20043;-74
2023/01/11 07:32:27;;;;;;;13.07;2.60;;;11.90;89.00;;;;;;5113563;28;20039;-74
2023/01/11 07:34:54;;;;;;;12.95;3.13;;;11.90;89.00;;;;;;5115121;28;20038;-74
2023/01/11 07:37:20;;;;;;;10.00;2.25;;;11.90;89.00;;;;;;5114674;28;20103;-74
2023/01/11 07:39:46;;;;;;;15.63;3.38;;;11.90;89.00;;;;;;5113650;28;20027;-73
2023/01/11 07:45:17;;;;;;;10.07;2.67;;;11.90;88.80;;;;;;5085287;28;20054;-73
2023/01/11 07:47:42;;;;;;;10.75;2.80;;;11.80;88.90;;;;;;5071303;28;20032;-73
2023/01/11 07:50:09;;;;;;;10.80;3.00;;;11.80;88.80;;;;;;5100775;28;20100;-73
2023/01/11 07:52:35;;;;;;;14.57;2.88;;;11.80;88.80;;;;;;5112894;28;20034;-73
2023/01/11 07:55:01;;;;;;;9.30;2.80;;;11.80;88.60;;;;;;5095279;28;20507;-73
2023/01/11 07:57:29;;;;;;;14.93;2.90;;;11.80;88.60;;;;;;5113415;28;20031;-74
2023/01/11 07:59:54;;;;;;;12.88;3.17;;;11.80;88.50;;;;;;5114371;28;20027;-74
2023/01/11 08:02:20;;;;;;;13.32;2.83;;;11.80;88.50;;;;;;5113866;28;20834;-74
2023/01/11 08:04:46;;;;;;;11.68;2.38;;;11.80;88.40;;;;;;5097671;28;20129;-75
2023/01/11 08:07:11;;;;;;;12.30;2.92;;;11.80;88.40;;;;;;5128815;27;20118;-74
2023/01/11 08:09:37;;;;;;;10.90;2.45;;;11.70;88.30;;;;;;5110743;28;20081;-73
2023/01/11 08:14:47;;;;;;;11.50;2.50;;;11.70;88.10;;;;;;5110944;27;20066;-74
2023/01/11 08:17:14;;;;;;;13.93;2.85;;;11.70;88.10;;;;;;5110145;27;20055;-72
2023/01/11 08:19:41;;;;;;;10.70;2.30;;;11.80;88.10;;;;;;5115281;27;20024;-72
2023/01/11 08:22:07;;;;;;;12.60;2.70;;;11.70;87.90;;;;;;5098768;27;20055;-70
2023/01/11 08:24:36;;;;;;;10.77;2.65;;;11.70;87.80;;;;;;5107541;27;20459;-73
2023/01/11 08:27:02;;;;;;;10.45;2.22;;;11.70;87.70;;;;;;5102355;27;20028;-73
2023/01/11 08:29:28;;;;;;;10.38;2.40;;;11.70;87.80;;;;;;5104939;27;20039;-73
2023/01/11 08:31:54;;;;;;;10.63;2.15;;;11.70;87.70;;;;;;5096932;27;20040;-73
2023/01/11 08:34:20;;;;;;;12.77;2.55;;;11.70;87.60;;;;;;5095864;28;20038;-73
2023/01/11 08:36:45;;;;;;;12.75;2.67;;;11.70;87.50;;;;;;5106640;27;20028;-73
2023/01/11 08:39:12;;;;;;;8.10;2.33;;;11.70;87.40;;;;;;5095718;27;20028;-73
2023/01/11 08:41:38;;;;;;;10.65;2.65;;;11.70;87.40;;;;;;5101863;28;20034;-73
2023/01/11 08:44:04;;;;;;;17.67;3.63;;;11.70;87.30;;;;;;5097177;27;20032;-74
2023/01/11 08:46:32;;;;;;;10.10;2.65;;;11.70;87.20;;;;;;5097538;27;20024;-73
2023/01/11 08:48:59;;;;;;;10.68;2.80;;;11.70;87.20;;;;;;5098472;27;20043;-73
2023/01/11 08:51:25;;;;;;;15.82;2.55;;;11.70;87.10;;;;;;5098762;27;20039;-73
2023/01/11 08:53:51;;;;;;;14.52;2.65;;;11.70;87.00;;;;;;5100858;27;20028;-73
2023/01/11 08:56:18;;;;;;;14.82;3.50;;;11.70;87.00;;;;;;5099584;28;20027;-73
2023/01/11 08:58:43;;;;;;;12.65;3.17;;;11.60;86.90;;;;;;5092485;28;20026;-73
2023/01/11 09:01:10;;;;;;;15.45;3.28;;;11.60;86.80;;;;;;5097077;28;20028;-73
2023/01/11 09:03:36;;;;;;;11.68;2.38;;;11.60;86.80;;;;;;5098558;28;20058;-74
2023/01/11 09:06:02;;;;;;;18.90;3.55;;;11.60;86.70;;;;;;5097751;28;20063;-73
2023/01/11 09:08:28;;;;;;;11.10;2.63;;;11.60;86.50;;;;;;5107674;28;20099;-74
2023/01/11 09:10:58;;;;;;;10.43;2.88;;;11.70;86.50;;;;;;5103119;28;20039;-74
2023/01/11 09:13:25;;;;;;;12.25;2.80;;;11.70;86.40;;;;;;5107023;28;20094;-74
2023/01/11 09:15:57;;;;;;;14.45;2.65;;;11.60;86.30;;;;;;5108912;27;20328;-73
2023/01/11 09:18:25;;;;;;;10.57;2.45;;;11.60;86.20;;;;;;5100219;28;20117;-74
2023/01/11 09:20:52;;;;;;;10.73;2.92;;;11.70;86.20;;;;;;5103748;28;20056;-73
2023/01/11 09:23:18;;;;;;;12.63;3.00;;;11.70;86.10;;;;;;5097017;28;20105;-74
2023/01/11 09:25:44;;;;;;;12.00;2.67;;;11.70;86.00;;;;;;5106277;28;20032;-73
2023/01/11 09:28:09;;;;;;;14.85;3.55;;;11.70;86.00;;;;;;5105703;28;20038;-75
2023/01/11 09:30:37;;;;;;;13.40;3.30;;;11.70;85.90;;;;;;5104694;28;20138;-74
2023/01/11 09:33:05;;;;;;;12.18;2.70;;;11.60;85.80;;;;;;5099851;28;20134;-73
2023/01/11 09:35:31;;;;;;;10.82;3.05;;;11.60;85.90;;;;;;5098938;28;20032;-71
2023/01/11 09:37:58;;;;;;;9.68;2.78;;;11.60;85.80;;;;;;5104836;28;20063;-73
2023/01/11 09:40:40;;;;;;;10.10;2.45;;;11.60;85.70;;;;;;5083115;28;20449;-73
2023/01/11 09:43:11;;;;;;;9.43;2.83;;;11.60;85.60;;;;;;5107150;28;20032;-74
2023/01/11 09:45:45;;;;;;;11.60;2.47;;;11.60;85.60;;;;;;5078007;28;20024;-74
2023/01/11 09:48:27;;;;;;;11.63;2.60;;;11.60;85.40;;;;;;5108562;28;20359;-73
2023/01/11 09:50:54;;;;;;;11.55;2.65;;;11.60;85.20;;;;;;5082337;28;20573;-75
2023/01/11 09:53:30;;;;;;;14.07;2.75;;;11.60;85.20;;;;;;5095180;28;20020;-71
2023/01/11 09:55:59;;;;;;;21.10;3.70;;;11.60;85.10;;;;;;5108827;27;20423;-72
2023/01/11 09:58:47;;;;;;;10.20;2.90;;;11.60;85.10;;;;;;5111336;27;20441;-74
2023/01/11 10:01:16;;;;;;;11.07;2.60;;;11.60;85.60;;;;;;5110886;27;20468;-74
2023/01/11 10:03:46;;;;;;;18.25;3.10;;;11.50;85.50;;;;;;5095390;28;20448;-74
2023/01/11 10:06:21;;;;;;;10.77;2.53;;;11.60;84.80;;;;;;5102563;28;20027;-74
2023/01/11 10:09:08;;;;;;;15.55;2.85;;;11.60;84.80;;;;;;5101534;28;20036;-75
2023/01/11 10:11:51;;;;;;;15.40;3.60;;;11.70;84.60;;;;;;5117656;27;20035;-74
2023/01/11 10:15:04;;;;;;;15.07;2.47;;;11.90;84.20;;;;;;5094266;28;20035;-73
2023/01/11 10:17:48;;;;;;;13.02;2.22;;;12.00;83.60;;;;;;5091388;27;20039;-74
2023/01/11 10:20:26;;;;;;;12.32;3.03;;;12.30;83.20;;;;;;5112057;27;20110;-73
2023/01/11 10:22:59;;;;;;;10.70;2.65;;;12.50;82.80;;;;;;5097434;28;20071;-73
2023/01/11 10:25:33;;;;;;;12.50;2.38;;;12.70;82.30;;;;;;5115931;28;20037;-73
2023/01/11 10:28:16;;;;;;;11.57;2.65;;;12.90;82.00;;;;;;5111196;27;20483;-73
2023/01/11 10:33:57;;;;;;;12.05;2.30;;;13.20;81.00;;;;;;5110104;27;20027;-73
2023/01/11 10:42:27;;;;;;;10.70;2.42;;;13.60;79.90;;;;;;5115295;27;20019;-75
2023/01/11 10:44:59;;;;;;;13.80;2.83;;;13.80;79.60;;;;;;5108466;28;20016;-75
2023/01/11 10:47:30;;;;;;;11.77;2.95;;;13.90;79.20;;;;;;5112835;28;20034;-75
2023/01/11 10:50:06;;;;;;;14.47;2.43;;;13.80;79.10;;;;;;5115932;28;20464;-75
2023/01/11 10:53:02;;;;;;;9.82;2.47;;;13.70;79.10;;;;;;5117564;28;20356;-75
2023/01/11 10:55:36;;;;;;;11.88;2.38;;;13.70;79.00;;;;;;5104759;28;20114;-75
2023/01/11 10:58:46;;;;;;;12.27;2.30;;;13.70;79.20;;;;;;5117035;28;20031;-75
2023/01/11 11:01:19;;;;;;;10.88;2.20;;;13.60;78.90;;;;;;5060902;28;20033;-75
2023/01/11 11:03:57;;;;;;;14.57;2.53;;;13.60;79.10;;;;;;5079672;28;20116;-75
2023/01/11 11:06:41;;;;;;;12.90;2.88;;;13.40;78.90;;;;;;5116719;28;20047;-75
2023/01/11 11:09:28;;;;;;;11.93;2.55;;;13.40;78.90;;;;;;5114406;28;20042;-74
2023/01/11 11:12:02;;;;;;;10.98;2.25;;;13.30;78.90;;;;;;5113387;28;20106;-74
2023/01/11 11:14:53;;;;;;;10.85;2.70;;;13.30;79.00;;;;;;5107530;28;20028;-74
2023/01/11 11:17:29;;;;;;;10.63;2.25;;;13.40;78.80;;;;;;5099015;28;20077;-74
2023/01/11 11:19:56;;;;;;;12.07;2.95;;;13.50;78.60;;;;;;5109868;28;20081;-75
2023/01/11 11:22:22;;;;;;;11.63;2.55;;;13.50;78.40;;;;;;5104664;28;21209;-74
2023/01/11 11:24:58;;;;;;;10.98;2.38;;;13.60;78.20;;;;;;5112753;28;20107;-76
2023/01/11 11:27:40;;;;;;;9.43;2.40;;;13.60;77.90;;;;;;5112769;28;20088;-75
2023/01/11 11:30:10;;;;;;;6.93;1.92;;;13.60;77.70;;;;;;5096479;28;20080;-74
2023/01/11 11:32:43;;;;;;;13.85;2.60;;;13.60;77.60;;;;;;5117505;27;20026;-75
2023/01/11 11:35:32;;;;;;;12.10;2.13;;;13.60;77.30;;;;;;5110982;27;20061;-75
2023/01/11 11:37:59;;;;;;;15.30;2.55;;;13.50;77.20;;;;;;5103925;27;20036;-76
2023/01/11 11:40:37;;;;;;;13.30;2.33;;;13.40;77.20;;;;;;5102936;28;20032;-74
2023/01/11 11:43:11;;;;;;;12.60;2.50;;;13.40;77.10;;;;;;5111134;27;20080;-74
2023/01/11 11:45:59;;;;;;;13.63;2.53;;;13.40;77.00;;;;;;5116410;27;20110;-74
2023/01/11 11:48:28;;;;;;;11.95;2.58;;;13.30;77.00;;;;;;5118452;27;20027;-74
2023/01/11 11:50:56;;;;;;;11.50;2.33;;;13.30;77.10;;;;;;5109233;27;20326;-74
2023/01/11 11:53:47;;;;;;;13.90;2.83;;;13.20;77.10;;;;;;5118193;27;20086;-74
2023/01/11 11:56:18;;;;;;;9.65;2.65;;;13.20;77.10;;;;;;5103878;27;20028;-75
2023/01/11 11:58:45;;;;;;;12.75;3.28;;;13.20;77.10;;;;;;5109772;27;20047;-75
2023/01/11 12:01:28;;;;;;;11.40;3.15;;;13.10;76.90;;;;;;5109625;27;20103;-75
2023/01/11 12:04:20;;;;;;;12.20;2.45;;;13.10;76.80;;;;;;5099945;27;20032;-76
2023/01/11 12:07:18;;;;;;;10.32;2.40;;;13.10;76.80;;;;;;5105795;27;20055;-74
2023/01/11 12:10:15;;;;;;;10.48;2.88;;;13.10;76.70;;;;;;5105419;27;20058;-73
2023/01/11 12:12:50;;;;;;;9.32;2.63;;;13.10;76.50;;;;;;5074739;28;20047;-71
2023/01/11 12:15:21;;;;;;;14.63;2.85;;;13.00;76.50;;;;;;5077046;28;20043;-73
2023/01/11 12:17:47;;;;;;;15.82;2.97;;;13.00;76.40;;;;;;5078177;28;20024;-73
2023/01/11 12:20:22;;;;;;;13.35;2.85;;;13.00;76.40;;;;;;5076275;28;20040;-74
2023/01/11 12:22:50;;;;;;;11.00;2.80;;;13.00;76.20;;;;;;5075545;28;20068;-74
2023/01/11 12:25:15;;;;;;;16.13;2.53;;;13.00;76.20;;;;;;5072385;28;20123;-74
2023/01/11 12:28:02;;;;;;;11.02;2.67;;;13.00;76.80;;;;;;5084440;28;20124;-74
2023/01/11 12:30:40;;;;;;;11.55;2.35;;;13.00;76.00;;;;;;5086109;28;20028;-74
2023/01/11 12:33:37;;;;;;;13.60;3.03;;;13.00;76.10;;;;;;5079703;28;20123;-74
2023/01/11 12:36:29;;;;;;;13.95;2.88;;;12.90;75.90;;;;;;5076098;28;20029;-74
2023/01/11 12:39:19;;;;;;;11.25;2.78;;;12.90;75.90;;;;;;5074301;28;20044;-75
2023/01/11 12:41:51;;;;;;;14.05;2.38;;;12.80;76.00;;;;;;5079015;28;20028;-74
2023/01/11 12:44:52;;;;;;;12.77;2.65;;;12.80;76.10;;;;;;5087806;28;20043;-74
2023/01/11 12:47:50;;;;;;;11.00;2.47;;;12.80;75.90;;;;;;5089013;28;20036;-74
2023/01/11 12:50:25;;;;;;;12.60;2.80;;;12.70;75.90;;;;;;5089697;28;20035;-74
2023/01/11 12:53:03;;;;;;;13.23;2.40;;;12.70;75.80;;;;;;5092162;28;20029;-74
2023/01/11 12:55:50;;;;;;;13.80;2.40;;;12.70;75.60;;;;;;5082272;28;20330;-74
2023/01/11 12:58:37;;;;;;;11.20;2.45;;;12.70;75.30;;;;;;5078887;28;20111;-74
2023/01/11 13:01:06;;;;;;;12.15;2.85;;;12.60;75.20;;;;;;5085443;28;20361;-74
2023/01/11 13:03:50;;;;;;;17.50;2.75;;;12.60;75.10;;;;;;5087874;28;20460;-74
2023/01/11 13:06:27;;;;;;;14.27;2.97;;;12.60;74.90;;;;;;5070909;28;20403;-74
2023/01/11 13:09:04;;;;;;;10.60;2.42;;;12.60;74.70;;;;;;5097297;28;20028;-74
2023/01/11 13:11:44;;;;;;;12.05;2.60;;;12.60;74.50;;;;;;5093141;28;20032;-76
2023/01/11 13:14:28;;;;;;;11.40;2.10;;;12.60;74.30;;;;;;5094189;28;20034;-74
2023/01/11 13:17:06;;;;;;;11.10;2.22;;;12.60;74.10;;;;;;5080781;28;20029;-74
2023/01/11 13:19:43;;;;;;;12.40;2.80;;;12.60;74.10;;;;;;5095136;28;20084;-73
2023/01/11 13:22:17;;;;;;;14.68;2.80;;;12.60;74.10;;;;;;5096771;28;20035;-75
2023/01/11 13:24:50;;;;;;;14.23;2.88;;;12.60;74.00;;;;;;5105943;28;20132;-74
2023/01/11 13:27:23;;;;;;;12.27;2.80;;;12.60;73.90;;;;;;5087662;28;20069;-76
2023/01/11 13:29:54;;;;;;;14.68;2.22;;;12.60;73.90;;;;;;5102104;28;20046;-75
2023/01/11 13:32:23;;;;;;;12.07;2.80;;;12.60;73.80;;;;;;5096835;27;20421;-75
2023/01/11 13:35:12;;;;;;;13.52;2.47;;;12.60;73.70;;;;;;5114108;27;20027;-76
2023/01/11 13:38:00;;;;;;;12.13;2.25;;;12.70;73.70;;;;;;5101650;27;20443;-76